Terminal Aerodrome Forecast
Issued by NWS

Home | Current Version | Previous Version | Text Only | Print | Product List | Glossary On
Versions: 1 2 3 4 5 6 7 8 9 10 11 12 13 14 15 16 17 18 19 20 21
459
FTUS44 KMAF 311731
TAFCNM
TAF
KCNM 311731Z 3118/0118 20011KT P6SM FEW100 SCT250
     FM312100 32009KT P6SM -SHRA SCT080 BKN200
     FM010600 14010KT P6SM BKN120=

USA.gov is the U.S. government's official web portal to all federal, state and local government web resources and services.